sensor_id;sensor_type;location;lat;lon;timestamp;P1;durP1;ratioP1;P2;durP2;ratioP2
76262;SDS011;65080;50.908;6.916;2023-02-03T00:00:00;10.80;;;4.63;;
76262;SDS011;65080;50.908;6.916;2023-02-03T00:02:30;15.47;;;4.83;;
76262;SDS011;65080;50.908;6.916;2023-02-03T00:04:58;12.87;;;5.70;;
76262;SDS011;65080;50.908;6.916;2023-02-03T00:07:26;8.57;;;4.43;;
76262;SDS011;65080;50.908;6.916;2023-02-03T00:09:55;9.23;;;4.90;;
76262;SDS011;65080;50.908;6.916;2023-02-03T00:12:24;8.30;;;4.20;;
76262;SDS011;65080;50.908;6.916;2023-02-03T00:14:52;8.10;;;4.17;;
76262;SDS011;65080;50.908;6.916;2023-02-03T00:17:22;8.50;;;3.73;;
76262;SDS011;65080;50.908;6.916;2023-02-03T00:19:50;12.53;;;3.90;;
76262;SDS011;65080;50.908;6.916;2023-02-03T00:22:19;13.13;;;3.13;;
76262;SDS011;65080;50.908;6.916;2023-02-03T00:24:47;6.87;;;3.33;;
76262;SDS011;65080;50.908;6.916;2023-02-03T00:27:15;7.73;;;3.70;;
76262;SDS011;65080;50.908;6.916;2023-02-03T00:29:43;9.93;;;3.57;;
76262;SDS011;65080;50.908;6.916;2023-02-03T00:32:11;9.77;;;3.17;;
76262;SDS011;65080;50.908;6.916;2023-02-03T00:34:41;8.77;;;4.10;;
76262;SDS011;65080;50.908;6.916;2023-02-03T00:37:10;9.10;;;3.33;;
76262;SDS011;65080;50.908;6.916;2023-02-03T00:39:39;9.33;;;3.40;;
76262;SDS011;65080;50.908;6.916;2023-02-03T00:42:07;4.80;;;2.70;;
76262;SDS011;65080;50.908;6.916;2023-02-03T00:44:35;10.50;;;3.93;;
76262;SDS011;65080;50.908;6.916;2023-02-03T00:47:04;8.33;;;3.33;;
76262;SDS011;65080;50.908;6.916;2023-02-03T00:49:32;6.83;;;2.80;;
76262;SDS011;65080;50.908;6.916;2023-02-03T00:52:02;9.03;;;3.47;;
76262;SDS011;65080;50.908;6.916;2023-02-03T00:54:31;8.77;;;3.17;;
76262;SDS011;65080;50.908;6.916;2023-02-03T00:56:59;6.10;;;2.57;;
76262;SDS011;65080;50.908;6.916;2023-02-03T00:59:27;6.20;;;2.67;;
76262;SDS011;65080;50.908;6.916;2023-02-03T01:01:55;10.30;;;3.23;;
76262;SDS011;65080;50.908;6.916;2023-02-03T01:04:24;9.23;;;2.43;;
76262;SDS011;65080;50.908;6.916;2023-02-03T01:06:52;6.50;;;2.50;;
76262;SDS011;65080;50.908;6.916;2023-02-03T01:09:24;10.87;;;3.00;;
76262;SDS011;65080;50.908;6.916;2023-02-03T01:11:53;12.53;;;3.30;;
76262;SDS011;65080;50.908;6.916;2023-02-03T01:14:21;11.63;;;2.87;;
76262;SDS011;65080;50.908;6.916;2023-02-03T01:16:49;10.90;;;2.87;;
76262;SDS011;65080;50.908;6.916;2023-02-03T01:19:18;7.30;;;3.13;;
76262;SDS011;65080;50.908;6.916;2023-02-03T01:21:46;10.43;;;3.10;;
76262;SDS011;65080;50.908;6.916;2023-02-03T01:24:14;9.57;;;3.40;;
76262;SDS011;65080;50.908;6.916;2023-02-03T01:26:44;8.90;;;3.07;;
76262;SDS011;65080;50.908;6.916;2023-02-03T01:29:12;13.93;;;3.17;;
76262;SDS011;65080;50.908;6.916;2023-02-03T01:31:41;6.80;;;2.20;;
76262;SDS011;65080;50.908;6.916;2023-02-03T01:34:10;10.17;;;2.80;;
76262;SDS011;65080;50.908;6.916;2023-02-03T01:36:41;6.63;;;2.33;;
76262;SDS011;65080;50.908;6.916;2023-02-03T01:39:10;4.90;;;2.30;;
76262;SDS011;65080;50.908;6.916;2023-02-03T01:41:38;7.37;;;2.90;;
76262;SDS011;65080;50.908;6.916;2023-02-03T01:47:10;4.77;;;2.60;;
76262;SDS011;65080;50.908;6.916;2023-02-03T01:49:52;9.90;;;3.10;;
76262;SDS011;65080;50.908;6.916;2023-02-03T01:52:27;7.30;;;2.67;;
76262;SDS011;65080;50.908;6.916;2023-02-03T01:54:56;12.03;;;3.47;;
76262;SDS011;65080;50.908;6.916;2023-02-03T01:57:31;8.03;;;2.63;;
76262;SDS011;65080;50.908;6.916;2023-02-03T02:00:04;6.00;;;2.00;;
76262;SDS011;65080;50.908;6.916;2023-02-03T02:02:34;5.03;;;2.50;;
76262;SDS011;65080;50.908;6.916;2023-02-03T02:05:04;8.60;;;2.40;;
76262;SDS011;65080;50.908;6.916;2023-02-03T02:07:36;7.00;;;2.70;;
76262;SDS011;65080;50.908;6.916;2023-02-03T02:10:07;3.90;;;2.43;;
76262;SDS011;65080;50.908;6.916;2023-02-03T02:12:35;10.60;;;2.60;;
76262;SDS011;65080;50.908;6.916;2023-02-03T02:15:06;9.67;;;2.30;;
76262;SDS011;65080;50.908;6.916;2023-02-03T02:17:38;5.97;;;2.60;;
76262;SDS011;65080;50.908;6.916;2023-02-03T02:20:33;4.50;;;2.00;;
76262;SDS011;65080;50.908;6.916;2023-02-03T02:29:35;5.30;;;2.90;;
76262;SDS011;65080;50.908;6.916;2023-02-03T02:35:54;6.40;;;2.13;;
76262;SDS011;65080;50.908;6.916;2023-02-03T02:38:29;5.50;;;2.23;;
76262;SDS011;65080;50.908;6.916;2023-02-03T02:41:09;8.03;;;2.83;;
76262;SDS011;65080;50.908;6.916;2023-02-03T02:43:44;4.33;;;1.70;;
76262;SDS011;65080;50.908;6.916;2023-02-03T02:46:15;6.77;;;2.43;;
76262;SDS011;65080;50.908;6.916;2023-02-03T02:48:47;9.03;;;2.77;;
76262;SDS011;65080;50.908;6.916;2023-02-03T02:51:21;9.33;;;2.73;;
76262;SDS011;65080;50.908;6.916;2023-02-03T02:53:52;4.63;;;2.50;;
76262;SDS011;65080;50.908;6.916;2023-02-03T02:56:24;10.33;;;2.37;;
76262;SDS011;65080;50.908;6.916;2023-02-03T02:58:53;5.87;;;2.77;;
76262;SDS011;65080;50.908;6.916;2023-02-03T03:01:23;6.50;;;2.50;;
76262;SDS011;65080;50.908;6.916;2023-02-03T03:03:52;6.33;;;2.77;;
76262;SDS011;65080;50.908;6.916;2023-02-03T03:06:22;6.00;;;2.53;;
76262;SDS011;65080;50.908;6.916;2023-02-03T03:08:55;9.17;;;3.20;;
76262;SDS011;65080;50.908;6.916;2023-02-03T03:11:27;6.87;;;2.70;;
76262;SDS011;65080;50.908;6.916;2023-02-03T03:13:58;6.07;;;2.37;;
76262;SDS011;65080;50.908;6.916;2023-02-03T03:16:30;6.70;;;2.10;;
76262;SDS011;65080;50.908;6.916;2023-02-03T03:19:02;7.80;;;2.20;;
76262;SDS011;65080;50.908;6.916;2023-02-03T03:21:35;7.33;;;2.40;;
76262;SDS011;65080;50.908;6.916;2023-02-03T03:24:09;7.10;;;2.10;;
76262;SDS011;65080;50.908;6.916;2023-02-03T03:26:42;6.30;;;2.53;;
76262;SDS011;65080;50.908;6.916;2023-02-03T03:29:17;9.10;;;2.70;;
76262;SDS011;65080;50.908;6.916;2023-02-03T03:31:48;10.03;;;2.90;;
76262;SDS011;65080;50.908;6.916;2023-02-03T03:34:16;4.60;;;2.43;;
76262;SDS011;65080;50.908;6.916;2023-02-03T03:36:47;9.53;;;2.40;;
76262;SDS011;65080;50.908;6.916;2023-02-03T03:39:23;4.37;;;1.97;;
76262;SDS011;65080;50.908;6.916;2023-02-03T03:41:59;6.93;;;2.43;;
76262;SDS011;65080;50.908;6.916;2023-02-03T03:44:34;11.30;;;2.57;;
76262;SDS011;65080;50.908;6.916;2023-02-03T03:47:08;8.73;;;3.40;;
76262;SDS011;65080;50.908;6.916;2023-02-03T03:49:42;4.60;;;2.93;;
76262;SDS011;65080;50.908;6.916;2023-02-03T03:52:15;9.10;;;2.80;;
76262;SDS011;65080;50.908;6.916;2023-02-03T03:54:48;5.93;;;2.20;;
76262;SDS011;65080;50.908;6.916;2023-02-03T03:57:18;6.20;;;2.93;;
76262;SDS011;65080;50.908;6.916;2023-02-03T03:59:49;9.33;;;3.17;;
76262;SDS011;65080;50.908;6.916;2023-02-03T04:02:18;9.30;;;2.70;;
76262;SDS011;65080;50.908;6.916;2023-02-03T04:04:49;5.07;;;2.50;;
76262;SDS011;65080;50.908;6.916;2023-02-03T04:07:19;7.33;;;3.60;;
76262;SDS011;65080;50.908;6.916;2023-02-03T04:09:48;5.93;;;2.60;;
76262;SDS011;65080;50.908;6.916;2023-02-03T04:12:18;15.43;;;3.17;;
76262;SDS011;65080;50.908;6.916;2023-02-03T04:14:49;11.57;;;4.30;;
76262;SDS011;65080;50.908;6.916;2023-02-03T04:17:18;4.80;;;2.50;;
76262;SDS011;65080;50.908;6.916;2023-02-03T04:19:46;5.13;;;2.20;;
76262;SDS011;65080;50.908;6.916;2023-02-03T04:22:14;11.17;;;3.10;;
76262;SDS011;65080;50.908;6.916;2023-02-03T04:24:44;9.57;;;2.90;;
76262;SDS011;65080;50.908;6.916;2023-02-03T04:27:12;8.93;;;2.97;;
76262;SDS011;65080;50.908;6.916;2023-02-03T04:29:40;9.80;;;2.90;;
76262;SDS011;65080;50.908;6.916;2023-02-03T04:32:08;8.07;;;3.93;;
76262;SDS011;65080;50.908;6.916;2023-02-03T04:34:37;6.50;;;2.80;;
76262;SDS011;65080;50.908;6.916;2023-02-03T04:37:05;8.83;;;2.57;;
76262;SDS011;65080;50.908;6.916;2023-02-03T04:39:34;5.93;;;2.57;;
76262;SDS011;65080;50.908;6.916;2023-02-03T04:42:03;7.80;;;2.77;;
76262;SDS011;65080;50.908;6.916;2023-02-03T04:44:32;9.17;;;2.70;;
76262;SDS011;65080;50.908;6.916;2023-02-03T04:47:00;6.67;;;2.80;;
76262;SDS011;65080;50.908;6.916;2023-02-03T04:49:28;8.50;;;2.70;;
76262;SDS011;65080;50.908;6.916;2023-02-03T04:51:56;5.97;;;2.90;;
76262;SDS011;65080;50.908;6.916;2023-02-03T04:54:25;8.60;;;2.10;;
76262;SDS011;65080;50.908;6.916;2023-02-03T04:56:53;5.90;;;2.13;;
76262;SDS011;65080;50.908;6.916;2023-02-03T04:59:23;6.50;;;2.17;;
76262;SDS011;65080;50.908;6.916;2023-02-03T05:01:51;8.30;;;2.13;;
76262;SDS011;65080;50.908;6.916;2023-02-03T05:04:19;11.43;;;2.87;;
76262;SDS011;65080;50.908;6.916;2023-02-03T05:06:47;7.03;;;2.20;;
76262;SDS011;65080;50.908;6.916;2023-02-03T05:09:16;9.17;;;2.47;;
76262;SDS011;65080;50.908;6.916;2023-02-03T05:11:44;6.63;;;2.23;;
76262;SDS011;65080;50.908;6.916;2023-02-03T05:14:13;5.10;;;2.10;;
76262;SDS011;65080;50.908;6.916;2023-02-03T05:16:42;7.87;;;1.83;;
76262;SDS011;65080;50.908;6.916;2023-02-03T05:19:12;7.27;;;1.80;;
76262;SDS011;65080;50.908;6.916;2023-02-03T05:21:40;6.30;;;2.30;;
76262;SDS011;65080;50.908;6.916;2023-02-03T05:24:08;6.40;;;2.63;;
76262;SDS011;65080;50.908;6.916;2023-02-03T05:26:37;6.10;;;2.40;;
76262;SDS011;65080;50.908;6.916;2023-02-03T05:29:05;8.53;;;2.10;;
76262;SDS011;65080;50.908;6.916;2023-02-03T05:31:33;7.03;;;2.30;;
76262;SDS011;65080;50.908;6.916;2023-02-03T05:34:03;8.10;;;2.73;;
76262;SDS011;65080;50.908;6.916;2023-02-03T05:36:31;8.63;;;2.00;;
76262;SDS011;65080;50.908;6.916;2023-02-03T05:38:59;7.87;;;2.43;;
76262;SDS011;65080;50.908;6.916;2023-02-03T05:41:27;8.47;;;2.10;;
76262;SDS011;65080;50.908;6.916;2023-02-03T05:44:13;5.60;;;2.40;;
76262;SDS011;65080;50.908;6.916;2023-02-03T05:46:41;4.87;;;2.10;;
76262;SDS011;65080;50.908;6.916;2023-02-03T05:49:11;3.60;;;1.90;;
76262;SDS011;65080;50.908;6.916;2023-02-03T05:51:39;6.10;;;1.70;;
76262;SDS011;65080;50.908;6.916;2023-02-03T05:54:08;5.93;;;2.20;;
76262;SDS011;65080;50.908;6.916;2023-02-03T05:56:36;3.23;;;1.73;;
76262;SDS011;65080;50.908;6.916;2023-02-03T05:59:05;12.87;;;1.97;;
76262;SDS011;65080;50.908;6.916;2023-02-03T06:01:34;7.40;;;1.90;;
76262;SDS011;65080;50.908;6.916;2023-02-03T06:04:03;8.07;;;1.23;;
76262;SDS011;65080;50.908;6.916;2023-02-03T06:06:33;4.67;;;1.70;;
76262;SDS011;65080;50.908;6.916;2023-02-03T06:09:03;10.47;;;2.23;;
76262;SDS011;65080;50.908;6.916;2023-02-03T06:11:32;5.43;;;2.30;;
76262;SDS011;65080;50.908;6.916;2023-02-03T06:14:01;4.13;;;1.70;;
76262;SDS011;65080;50.908;6.916;2023-02-03T06:16:30;6.37;;;1.97;;
76262;SDS011;65080;50.908;6.916;2023-02-03T06:18:58;6.77;;;2.10;;
76262;SDS011;65080;50.908;6.916;2023-02-03T06:21:27;8.00;;;2.47;;
76262;SDS011;65080;50.908;6.916;2023-02-03T06:23:57;5.67;;;1.93;;
76262;SDS011;65080;50.908;6.916;2023-02-03T06:26:25;11.70;;;2.87;;
76262;SDS011;65080;50.908;6.916;2023-02-03T06:28:53;6.77;;;1.30;;
76262;SDS011;65080;50.908;6.916;2023-02-03T06:31:22;7.13;;;1.50;;
76262;SDS011;65080;50.908;6.916;2023-02-03T06:33:50;6.57;;;1.73;;
76262;SDS011;65080;50.908;6.916;2023-02-03T06:36:18;5.13;;;1.13;;
76262;SDS011;65080;50.908;6.916;2023-02-03T06:38:47;9.97;;;1.90;;
76262;SDS011;65080;50.908;6.916;2023-02-03T06:41:17;6.60;;;1.57;;
76262;SDS011;65080;50.908;6.916;2023-02-03T06:43:45;6.00;;;1.60;;
76262;SDS011;65080;50.908;6.916;2023-02-03T06:46:13;7.30;;;1.70;;
76262;SDS011;65080;50.908;6.916;2023-02-03T06:48:42;8.77;;;1.57;;
76262;SDS011;65080;50.908;6.916;2023-02-03T06:51:10;6.60;;;1.40;;
76262;SDS011;65080;50.908;6.916;2023-02-03T06:53:38;3.00;;;1.20;;
76262;SDS011;65080;50.908;6.916;2023-02-03T06:56:06;9.40;;;2.00;;
76262;SDS011;65080;50.908;6.916;2023-02-03T06:58:36;3.23;;;1.40;;
76262;SDS011;65080;50.908;6.916;2023-02-03T07:01:04;4.53;;;1.67;;
76262;SDS011;65080;50.908;6.916;2023-02-03T07:03:32;8.40;;;1.50;;
76262;SDS011;65080;50.908;6.916;2023-02-03T07:06:01;9.47;;;2.07;;
76262;SDS011;65080;50.908;6.916;2023-02-03T07:08:29;6.07;;;1.70;;
76262;SDS011;65080;50.908;6.916;2023-02-03T07:10:57;6.73;;;1.40;;
76262;SDS011;65080;50.908;6.916;2023-02-03T07:13:25;10.13;;;1.40;;
76262;SDS011;65080;50.908;6.916;2023-02-03T07:15:55;7.47;;;1.53;;
76262;SDS011;65080;50.908;6.916;2023-02-03T07:18:23;7.47;;;1.83;;
76262;SDS011;65080;50.908;6.916;2023-02-03T07:21:12;3.93;;;1.27;;
76262;SDS011;65080;50.908;6.916;2023-02-03T07:23:41;8.97;;;1.50;;
76262;SDS011;65080;50.908;6.916;2023-02-03T07:26:09;4.83;;;1.40;;
76262;SDS011;65080;50.908;6.916;2023-02-03T07:28:38;4.83;;;1.40;;
76262;SDS011;65080;50.908;6.916;2023-02-03T07:31:07;4.30;;;1.47;;
76262;SDS011;65080;50.908;6.916;2023-02-03T07:33:37;6.20;;;1.53;;
76262;SDS011;65080;50.908;6.916;2023-02-03T07:36:06;5.50;;;1.37;;
76262;SDS011;65080;50.908;6.916;2023-02-03T07:38:35;4.40;;;1.50;;
76262;SDS011;65080;50.908;6.916;2023-02-03T07:41:04;9.40;;;1.60;;
76262;SDS011;65080;50.908;6.916;2023-02-03T07:43:33;7.03;;;1.23;;
76262;SDS011;65080;50.908;6.916;2023-02-03T07:46:01;8.77;;;1.70;;
76262;SDS011;65080;50.908;6.916;2023-02-03T07:48:31;9.33;;;1.60;;
76262;SDS011;65080;50.908;6.916;2023-02-03T07:51:00;6.27;;;1.53;;
76262;SDS011;65080;50.908;6.916;2023-02-03T07:53:28;5.30;;;1.33;;
76262;SDS011;65080;50.908;6.916;2023-02-03T07:55:58;7.40;;;1.33;;
76262;SDS011;65080;50.908;6.916;2023-02-03T07:58:27;4.10;;;1.20;;
76262;SDS011;65080;50.908;6.916;2023-02-03T08:00:56;7.83;;;1.43;;
76262;SDS011;65080;50.908;6.916;2023-02-03T08:03:26;8.33;;;1.33;;
76262;SDS011;65080;50.908;6.916;2023-02-03T08:05:56;4.70;;;1.50;;
76262;SDS011;65080;50.908;6.916;2023-02-03T08:08:24;3.63;;;1.20;;
76262;SDS011;65080;50.908;6.916;2023-02-03T08:10:53;4.30;;;1.00;;
76262;SDS011;65080;50.908;6.916;2023-02-03T08:13:22;5.33;;;1.60;;
76262;SDS011;65080;50.908;6.916;2023-02-03T08:15:51;3.10;;;1.57;;
76262;SDS011;65080;50.908;6.916;2023-02-03T08:18:19;5.53;;;1.23;;
76262;SDS011;65080;50.908;6.916;2023-02-03T08:20:48;6.13;;;1.43;;
76262;SDS011;65080;50.908;6.916;2023-02-03T08:23:18;2.00;;;0.90;;
76262;SDS011;65080;50.908;6.916;2023-02-03T08:25:49;5.60;;;1.07;;
76262;SDS011;65080;50.908;6.916;2023-02-03T13:47:47;12.17;;;9.03;;
76262;SDS011;65080;50.908;6.916;2023-02-03T13:50:19;17.80;;;10.90;;
76262;SDS011;65080;50.908;6.916;2023-02-03T13:52:54;13.80;;;8.63;;
76262;SDS011;65080;50.908;6.916;2023-02-03T13:55:32;10.90;;;7.77;;
76262;SDS011;65080;50.908;6.916;2023-02-03T13:58:03;11.73;;;8.07;;
76262;SDS011;65080;50.908;6.916;2023-02-03T14:03:42;9.80;;;7.70;;
76262;SDS011;65080;50.908;6.916;2023-02-03T14:09:33;17.13;;;8.33;;
76262;SDS011;65080;50.908;6.916;2023-02-03T14:12:16;12.10;;;8.17;;
76262;SDS011;65080;50.908;6.916;2023-02-03T14:15:17;11.33;;;7.67;;
76262;SDS011;65080;50.908;6.916;2023-02-03T14:17:59;12.10;;;8.10;;
76262;SDS011;65080;50.908;6.916;2023-02-03T14:20:38;10.87;;;7.30;;
76262;SDS011;65080;50.908;6.916;2023-02-03T14:23:11;12.13;;;8.07;;
76262;SDS011;65080;50.908;6.916;2023-02-03T14:25:43;12.80;;;8.10;;
76262;SDS011;65080;50.908;6.916;2023-02-03T14:28:15;8.60;;;7.50;;
76262;SDS011;65080;50.908;6.916;2023-02-03T14:30:59;10.67;;;8.30;;
76262;SDS011;65080;50.908;6.916;2023-02-03T14:33:52;9.77;;;7.53;;
76262;SDS011;65080;50.908;6.916;2023-02-03T14:36:37;8.43;;;7.07;;
76262;SDS011;65080;50.908;6.916;2023-02-03T14:42:22;12.83;;;7.10;;
76262;SDS011;65080;50.908;6.916;2023-02-03T14:45:27;10.30;;;7.03;;
76262;SDS011;65080;50.908;6.916;2023-02-03T14:48:25;13.73;;;7.23;;
76262;SDS011;65080;50.908;6.916;2023-02-03T14:51:06;12.57;;;7.57;;
76262;SDS011;65080;50.908;6.916;2023-02-03T14:53:56;15.50;;;6.90;;
76262;SDS011;65080;50.908;6.916;2023-02-03T14:56:45;11.03;;;7.37;;
76262;SDS011;65080;50.908;6.916;2023-02-03T14:59:36;10.40;;;6.20;;
76262;SDS011;65080;50.908;6.916;2023-02-03T15:02:08;10.23;;;7.13;;
76262;SDS011;65080;50.908;6.916;2023-02-03T15:04:40;9.33;;;6.10;;
76262;SDS011;65080;50.908;6.916;2023-02-03T15:07:08;10.13;;;6.67;;
76262;SDS011;65080;50.908;6.916;2023-02-03T15:10:00;6.63;;;5.90;;
76262;SDS011;65080;50.908;6.916;2023-02-03T15:12:33;12.73;;;6.77;;
76262;SDS011;65080;50.908;6.916;2023-02-03T15:15:13;11.43;;;7.33;;
76262;SDS011;65080;50.908;6.916;2023-02-03T15:17:46;12.73;;;7.00;;
76262;SDS011;65080;50.908;6.916;2023-02-03T15:20:31;13.60;;;6.20;;
76262;SDS011;65080;50.908;6.916;2023-02-03T15:23:15;11.47;;;5.60;;
76262;SDS011;65080;50.908;6.916;2023-02-03T15:25:55;13.60;;;6.80;;
76262;SDS011;65080;50.908;6.916;2023-02-03T15:28:25;11.03;;;5.80;;
76262;SDS011;65080;50.908;6.916;2023-02-03T15:30:56;8.23;;;5.70;;
76262;SDS011;65080;50.908;6.916;2023-02-03T15:33:28;8.63;;;5.40;;
76262;SDS011;65080;50.908;6.916;2023-02-03T15:35:59;11.87;;;5.17;;
76262;SDS011;65080;50.908;6.916;2023-02-03T15:38:33;10.93;;;5.47;;
76262;SDS011;65080;50.908;6.916;2023-02-03T15:41:06;10.43;;;5.70;;
76262;SDS011;65080;50.908;6.916;2023-02-03T15:43:42;10.83;;;5.33;;
76262;SDS011;65080;50.908;6.916;2023-02-03T15:46:13;10.17;;;5.23;;
76262;SDS011;65080;50.908;6.916;2023-02-03T15:48:45;5.20;;;4.50;;
76262;SDS011;65080;50.908;6.916;2023-02-03T15:51:18;10.07;;;4.30;;
76262;SDS011;65080;50.908;6.916;2023-02-03T15:53:51;6.43;;;3.43;;
76262;SDS011;65080;50.908;6.916;2023-02-03T15:56:32;7.13;;;3.40;;
76262;SDS011;65080;50.908;6.916;2023-02-03T15:59:16;7.30;;;3.77;;
76262;SDS011;65080;50.908;6.916;2023-02-03T16:01:47;13.93;;;3.40;;
76262;SDS011;65080;50.908;6.916;2023-02-03T16:04:16;6.10;;;3.40;;
76262;SDS011;65080;50.908;6.916;2023-02-03T16:06:45;5.63;;;3.50;;
76262;SDS011;65080;50.908;6.916;2023-02-03T16:09:28;9.50;;;3.60;;
76262;SDS011;65080;50.908;6.916;2023-02-03T16:12:03;9.83;;;3.20;;
76262;SDS011;65080;50.908;6.916;2023-02-03T16:14:41;14.77;;;3.97;;
76262;SDS011;65080;50.908;6.916;2023-02-03T16:17:20;17.77;;;7.40;;
76262;SDS011;65080;50.908;6.916;2023-02-03T16:20:18;14.40;;;4.63;;
76262;SDS011;65080;50.908;6.916;2023-02-03T16:23:01;8.53;;;3.53;;
76262;SDS011;65080;50.908;6.916;2023-02-03T16:28:32;8.17;;;3.30;;
76262;SDS011;65080;50.908;6.916;2023-02-03T16:31:18;9.03;;;3.83;;
76262;SDS011;65080;50.908;6.916;2023-02-03T16:34:11;7.83;;;4.37;;
76262;SDS011;65080;50.908;6.916;2023-02-03T16:36:58;10.33;;;5.00;;
76262;SDS011;65080;50.908;6.916;2023-02-03T16:39:44;13.43;;;4.70;;
76262;SDS011;65080;50.908;6.916;2023-02-03T16:42:35;12.77;;;4.20;;
76262;SDS011;65080;50.908;6.916;2023-02-03T16:45:24;13.30;;;5.40;;
76262;SDS011;65080;50.908;6.916;2023-02-03T16:48:11;10.47;;;6.03;;
76262;SDS011;65080;50.908;6.916;2023-02-03T16:50:57;14.77;;;5.70;;
76262;SDS011;65080;50.908;6.916;2023-02-03T16:53:31;10.70;;;5.97;;
76262;SDS011;65080;50.908;6.916;2023-02-03T16:56:00;8.60;;;5.40;;
76262;SDS011;65080;50.908;6.916;2023-02-03T16:58:30;10.40;;;4.60;;
76262;SDS011;65080;50.908;6.916;2023-02-03T17:01:00;10.47;;;4.60;;
76262;SDS011;65080;50.908;6.916;2023-02-03T17:03:33;11.43;;;3.50;;
76262;SDS011;65080;50.908;6.916;2023-02-03T17:06:03;12.03;;;4.20;;
76262;SDS011;65080;50.908;6.916;2023-02-03T17:08:33;12.27;;;3.37;;
76262;SDS011;65080;50.908;6.916;2023-02-03T17:11:03;15.07;;;3.33;;
76262;SDS011;65080;50.908;6.916;2023-02-03T17:13:32;12.67;;;3.30;;
76262;SDS011;65080;50.908;6.916;2023-02-03T17:16:07;15.03;;;3.60;;
76262;SDS011;65080;50.908;6.916;2023-02-03T17:18:38;12.07;;;3.60;;
76262;SDS011;65080;50.908;6.916;2023-02-03T17:21:08;14.17;;;3.00;;
76262;SDS011;65080;50.908;6.916;2023-02-03T17:23:38;18.23;;;3.97;;
76262;SDS011;65080;50.908;6.916;2023-02-03T17:26:07;16.23;;;3.93;;
76262;SDS011;65080;50.908;6.916;2023-02-03T17:28:35;14.50;;;4.17;;
76262;SDS011;65080;50.908;6.916;2023-02-03T17:31:06;14.70;;;3.80;;
76262;SDS011;65080;50.908;6.916;2023-02-03T17:33:38;9.00;;;2.70;;
76262;SDS011;65080;50.908;6.916;2023-02-03T17:36:08;17.10;;;3.20;;
76262;SDS011;65080;50.908;6.916;2023-02-03T17:38:41;14.30;;;3.43;;
76262;SDS011;65080;50.908;6.916;2023-02-03T17:41:28;11.53;;;3.03;;
76262;SDS011;65080;50.908;6.916;2023-02-03T17:44:14;11.90;;;2.90;;
76262;SDS011;65080;50.908;6.916;2023-02-03T17:47:01;10.10;;;2.77;;
76262;SDS011;65080;50.908;6.916;2023-02-03T17:49:48;15.40;;;4.07;;
76262;SDS011;65080;50.908;6.916;2023-02-03T17:52:34;18.17;;;3.23;;
76262;SDS011;65080;50.908;6.916;2023-02-03T17:55:20;13.57;;;3.20;;
76262;SDS011;65080;50.908;6.916;2023-02-03T17:57:49;16.50;;;3.10;;
76262;SDS011;65080;50.908;6.916;2023-02-03T18:00:17;15.37;;;3.83;;
76262;SDS011;65080;50.908;6.916;2023-02-03T18:02:49;11.70;;;3.07;;
76262;SDS011;65080;50.908;6.916;2023-02-03T18:05:18;14.33;;;2.83;;
76262;SDS011;65080;50.908;6.916;2023-02-03T18:07:46;16.10;;;3.03;;
76262;SDS011;65080;50.908;6.916;2023-02-03T18:10:15;14.20;;;3.20;;
76262;SDS011;65080;50.908;6.916;2023-02-03T18:12:44;11.03;;;3.00;;
76262;SDS011;65080;50.908;6.916;2023-02-03T18:15:12;20.83;;;3.70;;
76262;SDS011;65080;50.908;6.916;2023-02-03T18:17:40;15.47;;;3.93;;
76262;SDS011;65080;50.908;6.916;2023-02-03T18:20:10;14.30;;;4.50;;
76262;SDS011;65080;50.908;6.916;2023-02-03T18:22:39;13.93;;;2.30;;
76262;SDS011;65080;50.908;6.916;2023-02-03T18:25:08;16.90;;;3.57;;
76262;SDS011;65080;50.908;6.916;2023-02-03T18:27:37;15.05;;;4.05;;
76262;SDS011;65080;50.908;6.916;2023-02-03T18:30:05;11.97;;;2.70;;
76262;SDS011;65080;50.908;6.916;2023-02-03T18:32:36;19.43;;;3.90;;
76262;SDS011;65080;50.908;6.916;2023-02-03T18:35:05;14.43;;;3.20;;
76262;SDS011;65080;50.908;6.916;2023-02-03T18:37:39;18.70;;;3.70;;
76262;SDS011;65080;50.908;6.916;2023-02-03T18:40:08;15.77;;;3.70;;
76262;SDS011;65080;50.908;6.916;2023-02-03T18:42:37;18.03;;;4.67;;
76262;SDS011;65080;50.908;6.916;2023-02-03T18:45:05;13.03;;;3.20;;
76262;SDS011;65080;50.908;6.916;2023-02-03T18:47:34;17.77;;;3.00;;
76262;SDS011;65080;50.908;6.916;2023-02-03T18:50:03;19.23;;;2.97;;
76262;SDS011;65080;50.908;6.916;2023-02-03T18:52:32;14.43;;;2.90;;
76262;SDS011;65080;50.908;6.916;2023-02-03T18:55:02;14.63;;;3.70;;
76262;SDS011;65080;50.908;6.916;2023-02-03T18:57:30;18.10;;;4.23;;
76262;SDS011;65080;50.908;6.916;2023-02-03T18:59:58;12.57;;;3.10;;
76262;SDS011;65080;50.908;6.916;2023-02-03T19:02:27;12.63;;;3.20;;
76262;SDS011;65080;50.908;6.916;2023-02-03T19:04:56;14.30;;;2.90;;
76262;SDS011;65080;50.908;6.916;2023-02-03T19:07:24;11.77;;;3.20;;
76262;SDS011;65080;50.908;6.916;2023-02-03T19:09:53;10.83;;;4.20;;
76262;SDS011;65080;50.908;6.916;2023-02-03T19:12:22;11.37;;;3.80;;
76262;SDS011;65080;50.908;6.916;2023-02-03T19:14:53;8.07;;;3.70;;
76262;SDS011;65080;50.908;6.916;2023-02-03T19:17:21;12.03;;;4.60;;
76262;SDS011;65080;50.908;6.916;2023-02-03T19:19:49;19.03;;;4.73;;
76262;SDS011;65080;50.908;6.916;2023-02-03T19:22:18;13.83;;;5.07;;
76262;SDS011;65080;50.908;6.916;2023-02-03T19:24:46;15.30;;;5.33;;
76262;SDS011;65080;50.908;6.916;2023-02-03T19:27:14;17.27;;;5.10;;
76262;SDS011;65080;50.908;6.916;2023-02-03T19:29:44;15.00;;;5.40;;
76262;SDS011;65080;50.908;6.916;2023-02-03T19:32:12;12.40;;;6.10;;
76262;SDS011;65080;50.908;6.916;2023-02-03T19:34:40;13.47;;;5.77;;
76262;SDS011;65080;50.908;6.916;2023-02-03T19:37:09;12.93;;;6.00;;
76262;SDS011;65080;50.908;6.916;2023-02-03T19:39:37;17.43;;;7.37;;
76262;SDS011;65080;50.908;6.916;2023-02-03T19:42:06;15.97;;;6.10;;
76262;SDS011;65080;50.908;6.916;2023-02-03T19:44:34;19.27;;;6.50;;
76262;SDS011;65080;50.908;6.916;2023-02-03T19:47:04;18.63;;;5.90;;
76262;SDS011;65080;50.908;6.916;2023-02-03T19:49:32;11.47;;;5.60;;
76262;SDS011;65080;50.908;6.916;2023-02-03T19:52:01;13.60;;;6.57;;
76262;SDS011;65080;50.908;6.916;2023-02-03T19:54:30;27.53;;;8.00;;
76262;SDS011;65080;50.908;6.916;2023-02-03T19:56:58;16.23;;;7.50;;
76262;SDS011;65080;50.908;6.916;2023-02-03T19:59:27;25.50;;;7.33;;
76262;SDS011;65080;50.908;6.916;2023-02-03T20:01:55;20.57;;;7.17;;
76262;SDS011;65080;50.908;6.916;2023-02-03T20:04:33;20.00;;;8.20;;
76262;SDS011;65080;50.908;6.916;2023-02-03T20:07:01;12.93;;;7.73;;
76262;SDS011;65080;50.908;6.916;2023-02-03T20:09:30;18.00;;;7.33;;
76262;SDS011;65080;50.908;6.916;2023-02-03T20:11:58;17.80;;;8.50;;
76262;SDS011;65080;50.908;6.916;2023-02-03T20:14:26;17.57;;;8.40;;
76262;SDS011;65080;50.908;6.916;2023-02-03T20:16:55;28.17;;;12.53;;
76262;SDS011;65080;50.908;6.916;2023-02-03T20:19:23;18.83;;;8.27;;
76262;SDS011;65080;50.908;6.916;2023-02-03T20:21:53;19.40;;;9.37;;
76262;SDS011;65080;50.908;6.916;2023-02-03T20:24:21;15.27;;;7.90;;
76262;SDS011;65080;50.908;6.916;2023-02-03T20:26:50;14.97;;;6.90;;
76262;SDS011;65080;50.908;6.916;2023-02-03T20:29:19;19.13;;;8.90;;
76262;SDS011;65080;50.908;6.916;2023-02-03T20:31:47;17.97;;;7.73;;
76262;SDS011;65080;50.908;6.916;2023-02-03T20:34:18;23.83;;;7.47;;
76262;SDS011;65080;50.908;6.916;2023-02-03T20:36:46;22.83;;;8.23;;
76262;SDS011;65080;50.908;6.916;2023-02-03T20:39:17;13.30;;;6.27;;
76262;SDS011;65080;50.908;6.916;2023-02-03T20:41:46;15.30;;;6.10;;
76262;SDS011;65080;50.908;6.916;2023-02-03T20:44:15;16.10;;;5.80;;
76262;SDS011;65080;50.908;6.916;2023-02-03T20:46:44;12.97;;;5.03;;
76262;SDS011;65080;50.908;6.916;2023-02-03T20:49:13;13.63;;;4.80;;
76262;SDS011;65080;50.908;6.916;2023-02-03T20:51:43;12.03;;;4.60;;